Terminal Aerodrome Forecast
Issued by NWS

Home | Current Version | Previous Version | Text Only | Print | Product List | Glossary On
Versions: 1 2 3 4 5 6 7 8 9 10 11 12 13 14 15 16
331
FTAK31 PAJN 211726
TAFASI
TAF
PASI 211726Z 2118/2218 34005KT P6SM SCT005 SCT150
     FM220600 10007KT P6SM BKN120=

USA.gov is the U.S. government's official web portal to all federal, state and local government web resources and services.